sensor_id;sensor_type;location;lat;lon;timestamp;temperature;humidity
21331;DHT22;10824;51.632;4.950;2023-05-10T00:01:36;13.20;99.90
21331;DHT22;10824;51.632;4.950;2023-05-10T00:04:03;13.20;99.90
21331;DHT22;10824;51.632;4.950;2023-05-10T00:06:30;13.20;99.90
21331;DHT22;10824;51.632;4.950;2023-05-10T00:08:58;13.20;99.90
21331;DHT22;10824;51.632;4.950;2023-05-10T00:11:25;13.20;99.90
21331;DHT22;10824;51.632;4.950;2023-05-10T00:13:52;13.20;99.90
21331;DHT22;10824;51.632;4.950;2023-05-10T00:16:19;13.20;99.90
21331;DHT22;10824;51.632;4.950;2023-05-10T00:18:47;13.20;99.90
21331;DHT22;10824;51.632;4.950;2023-05-10T00:21:14;13.10;99.90
21331;DHT22;10824;51.632;4.950;2023-05-10T00:23:41;13.10;99.90
21331;DHT22;10824;51.632;4.950;2023-05-10T00:26:08;13.10;99.90
21331;DHT22;10824;51.632;4.950;2023-05-10T00:28:36;13.10;99.90
21331;DHT22;10824;51.632;4.950;2023-05-10T00:31:04;13.10;99.90
21331;DHT22;10824;51.632;4.950;2023-05-10T00:33:30;13.10;99.90
21331;DHT22;10824;51.632;4.950;2023-05-10T00:35:58;13.00;99.90
21331;DHT22;10824;51.632;4.950;2023-05-10T00:38:25;13.00;99.90
21331;DHT22;10824;51.632;4.950;2023-05-10T00:40:52;13.00;99.90
21331;DHT22;10824;51.632;4.950;2023-05-10T00:43:27;12.90;99.90
21331;DHT22;10824;51.632;4.950;2023-05-10T00:45:54;13.00;99.90
21331;DHT22;10824;51.632;4.950;2023-05-10T00:48:21;12.90;99.90
21331;DHT22;10824;51.632;4.950;2023-05-10T00:50:49;12.90;99.90
21331;DHT22;10824;51.632;4.950;2023-05-10T00:53:17;12.90;99.90
21331;DHT22;10824;51.632;4.950;2023-05-10T00:55:45;12.80;99.90
21331;DHT22;10824;51.632;4.950;2023-05-10T00:58:12;12.80;99.90
21331;DHT22;10824;51.632;4.950;2023-05-10T01:00:42;12.80;99.90
21331;DHT22;10824;51.632;4.950;2023-05-10T01:03:11;12.80;99.90
21331;DHT22;10824;51.632;4.950;2023-05-10T01:05:38;12.80;99.90
21331;DHT22;10824;51.632;4.950;2023-05-10T01:08:05;12.80;99.90
21331;DHT22;10824;51.632;4.950;2023-05-10T01:10:33;12.70;99.90
21331;DHT22;10824;51.632;4.950;2023-05-10T01:13:01;12.70;99.90
21331;DHT22;10824;51.632;4.950;2023-05-10T01:15:30;12.60;99.90
21331;DHT22;10824;51.632;4.950;2023-05-10T01:17:58;12.60;99.90
21331;DHT22;10824;51.632;4.950;2023-05-10T01:20:27;12.70;99.90
21331;DHT22;10824;51.632;4.950;2023-05-10T01:23:10;12.70;99.90
21331;DHT22;10824;51.632;4.950;2023-05-10T01:28:39;12.70;99.90
21331;DHT22;10824;51.632;4.950;2023-05-10T01:34:17;12.70;99.90
21331;DHT22;10824;51.632;4.950;2023-05-10T01:36:55;12.80;99.90
21331;DHT22;10824;51.632;4.950;2023-05-10T01:39:36;12.80;99.90
21331;DHT22;10824;51.632;4.950;2023-05-10T01:42:12;12.80;99.90
21331;DHT22;10824;51.632;4.950;2023-05-10T01:44:47;12.80;99.90
21331;DHT22;10824;51.632;4.950;2023-05-10T01:47:22;12.80;99.90
21331;DHT22;10824;51.632;4.950;2023-05-10T01:49:54;12.80;99.90
21331;DHT22;10824;51.632;4.950;2023-05-10T01:52:37;12.80;99.90
21331;DHT22;10824;51.632;4.950;2023-05-10T01:55:07;12.80;99.90
21331;DHT22;10824;51.632;4.950;2023-05-10T01:57:36;12.80;99.90
21331;DHT22;10824;51.632;4.950;2023-05-10T02:00:07;12.80;99.90
21331;DHT22;10824;51.632;4.950;2023-05-10T02:02:44;12.90;99.90
21331;DHT22;10824;51.632;4.950;2023-05-10T02:05:12;12.90;99.90
21331;DHT22;10824;51.632;4.950;2023-05-10T02:07:41;12.90;99.90
21331;DHT22;10824;51.632;4.950;2023-05-10T02:10:10;12.90;99.90
21331;DHT22;10824;51.632;4.950;2023-05-10T02:12:47;12.90;99.90
21331;DHT22;10824;51.632;4.950;2023-05-10T02:15:18;12.90;99.90
21331;DHT22;10824;51.632;4.950;2023-05-10T02:17:47;12.90;99.90
21331;DHT22;10824;51.632;4.950;2023-05-10T02:20:16;12.90;99.90
21331;DHT22;10824;51.632;4.950;2023-05-10T02:22:45;12.90;99.90
21331;DHT22;10824;51.632;4.950;2023-05-10T02:25:15;13.00;99.90
21331;DHT22;10824;51.632;4.950;2023-05-10T02:27:44;13.00;99.90
21331;DHT22;10824;51.632;4.950;2023-05-10T02:30:14;13.00;99.90
21331;DHT22;10824;51.632;4.950;2023-05-10T02:32:43;13.00;99.90
21331;DHT22;10824;51.632;4.950;2023-05-10T02:35:11;13.00;99.90
21331;DHT22;10824;51.632;4.950;2023-05-10T02:37:41;13.00;99.90
21331;DHT22;10824;51.632;4.950;2023-05-10T02:40:08;13.00;99.90
21331;DHT22;10824;51.632;4.950;2023-05-10T02:42:38;13.00;99.90
21331;DHT22;10824;51.632;4.950;2023-05-10T02:45:12;13.00;99.90
21331;DHT22;10824;51.632;4.950;2023-05-10T02:47:41;13.10;99.90
21331;DHT22;10824;51.632;4.950;2023-05-10T02:50:09;13.00;99.90
21331;DHT22;10824;51.632;4.950;2023-05-10T02:52:40;13.10;99.90
21331;DHT22;10824;51.632;4.950;2023-05-10T02:55:09;13.00;99.90
21331;DHT22;10824;51.632;4.950;2023-05-10T02:57:43;13.00;99.90
21331;DHT22;10824;51.632;4.950;2023-05-10T03:00:12;13.00;99.90
21331;DHT22;10824;51.632;4.950;2023-05-10T03:02:39;13.00;99.90
21331;DHT22;10824;51.632;4.950;2023-05-10T03:05:08;13.00;99.90
21331;DHT22;10824;51.632;4.950;2023-05-10T03:07:35;13.00;99.90
21331;DHT22;10824;51.632;4.950;2023-05-10T03:10:03;13.00;99.90
21331;DHT22;10824;51.632;4.950;2023-05-10T03:15:18;13.00;99.90
21331;DHT22;10824;51.632;4.950;2023-05-10T03:20:47;13.00;99.90
21331;DHT22;10824;51.632;4.950;2023-05-10T03:23:22;12.90;99.90
21331;DHT22;10824;51.632;4.950;2023-05-10T03:25:53;12.90;99.90
21331;DHT22;10824;51.632;4.950;2023-05-10T03:28:21;12.90;99.90
21331;DHT22;10824;51.632;4.950;2023-05-10T03:30:49;12.90;99.90
21331;DHT22;10824;51.632;4.950;2023-05-10T03:33:16;12.90;99.90
21331;DHT22;10824;51.632;4.950;2023-05-10T03:35:45;12.90;99.90
21331;DHT22;10824;51.632;4.950;2023-05-10T03:38:13;12.90;99.90
21331;DHT22;10824;51.632;4.950;2023-05-10T03:40:40;12.80;99.90
21331;DHT22;10824;51.632;4.950;2023-05-10T03:43:08;12.90;99.90
21331;DHT22;10824;51.632;4.950;2023-05-10T03:45:35;12.90;99.90
21331;DHT22;10824;51.632;4.950;2023-05-10T03:48:04;12.80;99.90
21331;DHT22;10824;51.632;4.950;2023-05-10T03:50:31;12.80;99.90
21331;DHT22;10824;51.632;4.950;2023-05-10T03:52:58;12.80;99.90
21331;DHT22;10824;51.632;4.950;2023-05-10T03:55:27;12.80;99.90
21331;DHT22;10824;51.632;4.950;2023-05-10T03:57:55;12.80;99.90
21331;DHT22;10824;51.632;4.950;2023-05-10T04:00:22;12.80;99.90
21331;DHT22;10824;51.632;4.950;2023-05-10T04:02:53;12.80;99.90
21331;DHT22;10824;51.632;4.950;2023-05-10T04:05:20;12.80;99.90
21331;DHT22;10824;51.632;4.950;2023-05-10T04:07:47;12.80;99.90
21331;DHT22;10824;51.632;4.950;2023-05-10T04:10:16;12.80;99.90
21331;DHT22;10824;51.632;4.950;2023-05-10T04:12:43;12.90;99.90
21331;DHT22;10824;51.632;4.950;2023-05-10T04:15:10;12.80;99.90
21331;DHT22;10824;51.632;4.950;2023-05-10T04:17:37;12.80;99.90
21331;DHT22;10824;51.632;4.950;2023-05-10T04:20:05;12.80;99.90
21331;DHT22;10824;51.632;4.950;2023-05-10T04:22:32;12.80;99.90
21331;DHT22;10824;51.632;4.950;2023-05-10T04:25:00;12.80;99.90
21331;DHT22;10824;51.632;4.950;2023-05-10T04:27:27;12.80;99.90
21331;DHT22;10824;51.632;4.950;2023-05-10T04:29:54;12.70;99.90
21331;DHT22;10824;51.632;4.950;2023-05-10T04:32:21;12.70;99.90
21331;DHT22;10824;51.632;4.950;2023-05-10T04:34:48;12.80;99.90
21331;DHT22;10824;51.632;4.950;2023-05-10T04:37:17;12.80;99.90
21331;DHT22;10824;51.632;4.950;2023-05-10T04:39:45;12.70;99.90
21331;DHT22;10824;51.632;4.950;2023-05-10T04:42:12;12.80;99.90
21331;DHT22;10824;51.632;4.950;2023-05-10T04:44:41;12.80;99.90
21331;DHT22;10824;51.632;4.950;2023-05-10T04:47:08;12.70;99.90
21331;DHT22;10824;51.632;4.950;2023-05-10T04:49:38;12.70;99.90
21331;DHT22;10824;51.632;4.950;2023-05-10T04:52:05;12.70;99.90
21331;DHT22;10824;51.632;4.950;2023-05-10T04:54:32;12.70;99.90
21331;DHT22;10824;51.632;4.950;2023-05-10T04:56:59;12.60;99.90
21331;DHT22;10824;51.632;4.950;2023-05-10T04:59:26;12.70;99.90
21331;DHT22;10824;51.632;4.950;2023-05-10T05:01:53;12.70;99.90
21331;DHT22;10824;51.632;4.950;2023-05-10T05:04:20;12.70;99.90
21331;DHT22;10824;51.632;4.950;2023-05-10T05:06:47;12.80;99.90
21331;DHT22;10824;51.632;4.950;2023-05-10T05:09:14;12.80;99.90
21331;DHT22;10824;51.632;4.950;2023-05-10T05:11:41;12.80;99.90
21331;DHT22;10824;51.632;4.950;2023-05-10T05:14:08;12.80;99.90
21331;DHT22;10824;51.632;4.950;2023-05-10T05:16:35;12.80;99.90
21331;DHT22;10824;51.632;4.950;2023-05-10T05:19:02;12.80;99.90
21331;DHT22;10824;51.632;4.950;2023-05-10T05:21:30;12.80;99.90
21331;DHT22;10824;51.632;4.950;2023-05-10T05:23:58;12.80;99.90
21331;DHT22;10824;51.632;4.950;2023-05-10T05:26:26;12.80;99.90
21331;DHT22;10824;51.632;4.950;2023-05-10T05:28:53;12.80;99.90
21331;DHT22;10824;51.632;4.950;2023-05-10T05:31:23;12.90;99.90
21331;DHT22;10824;51.632;4.950;2023-05-10T05:33:52;12.90;99.90
21331;DHT22;10824;51.632;4.950;2023-05-10T05:36:21;12.90;99.90
21331;DHT22;10824;51.632;4.950;2023-05-10T05:38:48;12.90;99.90
21331;DHT22;10824;51.632;4.950;2023-05-10T05:41:15;13.00;99.90
21331;DHT22;10824;51.632;4.950;2023-05-10T05:43:42;13.00;99.90
21331;DHT22;10824;51.632;4.950;2023-05-10T05:46:09;12.90;99.90
21331;DHT22;10824;51.632;4.950;2023-05-10T05:48:36;13.00;99.90
21331;DHT22;10824;51.632;4.950;2023-05-10T05:51:03;13.00;99.90
21331;DHT22;10824;51.632;4.950;2023-05-10T05:53:33;13.00;99.90
21331;DHT22;10824;51.632;4.950;2023-05-10T05:56:00;13.10;99.90
21331;DHT22;10824;51.632;4.950;2023-05-10T05:58:27;13.10;99.90
21331;DHT22;10824;51.632;4.950;2023-05-10T06:00:54;13.10;99.90
21331;DHT22;10824;51.632;4.950;2023-05-10T06:03:21;13.10;99.90
21331;DHT22;10824;51.632;4.950;2023-05-10T06:05:48;13.20;99.90
21331;DHT22;10824;51.632;4.950;2023-05-10T06:08:15;13.20;99.90
21331;DHT22;10824;51.632;4.950;2023-05-10T06:10:42;13.10;99.90
21331;DHT22;10824;51.632;4.950;2023-05-10T06:13:10;13.20;99.90
21331;DHT22;10824;51.632;4.950;2023-05-10T06:15:38;13.10;99.90
21331;DHT22;10824;51.632;4.950;2023-05-10T06:18:05;13.10;99.90
21331;DHT22;10824;51.632;4.950;2023-05-10T06:20:32;13.10;99.90
21331;DHT22;10824;51.632;4.950;2023-05-10T06:22:59;13.00;99.90
21331;DHT22;10824;51.632;4.950;2023-05-10T06:25:26;12.90;99.90
21331;DHT22;10824;51.632;4.950;2023-05-10T06:27:53;12.90;99.90
21331;DHT22;10824;51.632;4.950;2023-05-10T06:30:25;12.90;99.90
21331;DHT22;10824;51.632;4.950;2023-05-10T06:32:55;12.90;99.90
21331;DHT22;10824;51.632;4.950;2023-05-10T06:35:22;12.90;99.90
21331;DHT22;10824;51.632;4.950;2023-05-10T06:37:50;13.00;99.90
21331;DHT22;10824;51.632;4.950;2023-05-10T06:40:17;12.90;99.90
21331;DHT22;10824;51.632;4.950;2023-05-10T06:42:45;13.00;99.90
21331;DHT22;10824;51.632;4.950;2023-05-10T06:45:14;13.00;99.90
21331;DHT22;10824;51.632;4.950;2023-05-10T06:47:42;13.00;99.90
21331;DHT22;10824;51.632;4.950;2023-05-10T06:50:10;13.00;99.90
21331;DHT22;10824;51.632;4.950;2023-05-10T06:52:38;13.00;99.90
21331;DHT22;10824;51.632;4.950;2023-05-10T06:55:05;13.10;99.90
21331;DHT22;10824;51.632;4.950;2023-05-10T06:57:32;13.10;99.90
21331;DHT22;10824;51.632;4.950;2023-05-10T07:00:02;13.10;99.90
21331;DHT22;10824;51.632;4.950;2023-05-10T07:02:31;13.20;99.90
21331;DHT22;10824;51.632;4.950;2023-05-10T07:04:59;13.30;99.90
21331;DHT22;10824;51.632;4.950;2023-05-10T07:07:55;13.40;99.90
21331;DHT22;10824;51.632;4.950;2023-05-10T07:10:22;13.50;99.90
21331;DHT22;10824;51.632;4.950;2023-05-10T07:12:49;13.60;99.90
21331;DHT22;10824;51.632;4.950;2023-05-10T07:15:17;13.60;99.90
21331;DHT22;10824;51.632;4.950;2023-05-10T07:17:44;13.70;99.90
21331;DHT22;10824;51.632;4.950;2023-05-10T07:20:12;13.80;99.90
21331;DHT22;10824;51.632;4.950;2023-05-10T07:22:39;13.90;99.90
21331;DHT22;10824;51.632;4.950;2023-05-10T07:25:06;14.00;99.90
21331;DHT22;10824;51.632;4.950;2023-05-10T07:27:33;14.10;99.10
21331;DHT22;10824;51.632;4.950;2023-05-10T07:30:01;14.10;98.00
21331;DHT22;10824;51.632;4.950;2023-05-10T07:32:28;14.00;95.90
21331;DHT22;10824;51.632;4.950;2023-05-10T07:34:55;14.10;95.70
21331;DHT22;10824;51.632;4.950;2023-05-10T07:37:22;14.20;96.20
21331;DHT22;10824;51.632;4.950;2023-05-10T07:39:49;14.20;96.00
21331;DHT22;10824;51.632;4.950;2023-05-10T07:42:16;14.30;96.10
21331;DHT22;10824;51.632;4.950;2023-05-10T07:44:43;14.30;95.50
21331;DHT22;10824;51.632;4.950;2023-05-10T07:47:10;14.40;96.40
21331;DHT22;10824;51.632;4.950;2023-05-10T07:49:37;14.40;95.50
21331;DHT22;10824;51.632;4.950;2023-05-10T07:52:04;14.30;94.10
21331;DHT22;10824;51.632;4.950;2023-05-10T07:54:32;14.40;94.40
21331;DHT22;10824;51.632;4.950;2023-05-10T07:57:00;14.40;94.40
21331;DHT22;10824;51.632;4.950;2023-05-10T07:59:27;14.40;93.50
21331;DHT22;10824;51.632;4.950;2023-05-10T08:01:54;14.60;93.60
21331;DHT22;10824;51.632;4.950;2023-05-10T08:04:21;14.70;93.20
21331;DHT22;10824;51.632;4.950;2023-05-10T08:06:49;14.80;92.60
21331;DHT22;10824;51.632;4.950;2023-05-10T08:09:16;14.70;90.60
21331;DHT22;10824;51.632;4.950;2023-05-10T08:11:44;14.80;91.50
21331;DHT22;10824;51.632;4.950;2023-05-10T08:14:11;14.90;91.40
21331;DHT22;10824;51.632;4.950;2023-05-10T08:16:39;15.00;90.60
21331;DHT22;10824;51.632;4.950;2023-05-10T08:19:06;15.00;87.50
21331;DHT22;10824;51.632;4.950;2023-05-10T08:21:33;15.00;88.90
21331;DHT22;10824;51.632;4.950;2023-05-10T08:24:00;15.00;88.80
21331;DHT22;10824;51.632;4.950;2023-05-10T08:26:28;14.90;87.50
21331;DHT22;10824;51.632;4.950;2023-05-10T08:28:55;14.90;88.20
21331;DHT22;10824;51.632;4.950;2023-05-10T08:31:22;15.00;88.60
21331;DHT22;10824;51.632;4.950;2023-05-10T08:33:49;15.00;87.20
21331;DHT22;10824;51.632;4.950;2023-05-10T08:36:18;15.30;86.90
21331;DHT22;10824;51.632;4.950;2023-05-10T08:38:50;15.30;86.40
21331;DHT22;10824;51.632;4.950;2023-05-10T08:41:23;15.30;86.40
21331;DHT22;10824;51.632;4.950;2023-05-10T08:43:52;15.10;82.90
21331;DHT22;10824;51.632;4.950;2023-05-10T08:46:21;15.10;85.20
21331;DHT22;10824;51.632;4.950;2023-05-10T08:48:50;15.10;84.40
21331;DHT22;10824;51.632;4.950;2023-05-10T08:51:21;15.10;86.70
21331;DHT22;10824;51.632;4.950;2023-05-10T08:53:49;15.10;84.40
21331;DHT22;10824;51.632;4.950;2023-05-10T08:56:16;15.10;86.00
21331;DHT22;10824;51.632;4.950;2023-05-10T08:58:44;15.20;85.50
21331;DHT22;10824;51.632;4.950;2023-05-10T09:01:12;15.30;85.20
21331;DHT22;10824;51.632;4.950;2023-05-10T09:03:40;15.20;80.30
21331;DHT22;10824;51.632;4.950;2023-05-10T09:06:07;15.10;81.90
21331;DHT22;10824;51.632;4.950;2023-05-10T09:08:36;15.00;82.30
21331;DHT22;10824;51.632;4.950;2023-05-10T09:11:04;15.00;82.80
21331;DHT22;10824;51.632;4.950;2023-05-10T09:13:32;15.20;82.90
21331;DHT22;10824;51.632;4.950;2023-05-10T09:16:00;15.30;82.40
21331;DHT22;10824;51.632;4.950;2023-05-10T09:18:47;15.30;82.30
21331;DHT22;10824;51.632;4.950;2023-05-10T09:21:14;15.50;82.20
21331;DHT22;10824;51.632;4.950;2023-05-10T09:23:48;15.50;80.30
21331;DHT22;10824;51.632;4.950;2023-05-10T09:26:22;15.40;79.50
21331;DHT22;10824;51.632;4.950;2023-05-10T09:28:54;15.40;79.60
21331;DHT22;10824;51.632;4.950;2023-05-10T09:31:22;15.30;78.10
21331;DHT22;10824;51.632;4.950;2023-05-10T09:34:05;15.40;79.80
21331;DHT22;10824;51.632;4.950;2023-05-10T09:36:34;15.40;78.80
21331;DHT22;10824;51.632;4.950;2023-05-10T09:39:02;15.40;79.20
21331;DHT22;10824;51.632;4.950;2023-05-10T09:41:30;15.40;78.00
21331;DHT22;10824;51.632;4.950;2023-05-10T09:43:57;15.30;77.80
21331;DHT22;10824;51.632;4.950;2023-05-10T09:46:25;15.20;80.10
21331;DHT22;10824;51.632;4.950;2023-05-10T09:48:54;15.30;81.10
21331;DHT22;10824;51.632;4.950;2023-05-10T09:51:22;15.10;78.60
21331;DHT22;10824;51.632;4.950;2023-05-10T09:54:12;15.10;78.40
21331;DHT22;10824;51.632;4.950;2023-05-10T09:56:41;15.10;79.60
21331;DHT22;10824;51.632;4.950;2023-05-10T09:59:11;15.10;76.90
21331;DHT22;10824;51.632;4.950;2023-05-10T10:01:39;15.30;78.00
21331;DHT22;10824;51.632;4.950;2023-05-10T10:04:10;15.40;76.40
21331;DHT22;10824;51.632;4.950;2023-05-10T10:06:40;15.70;75.90
21331;DHT22;10824;51.632;4.950;2023-05-10T10:09:08;15.70;68.60
21331;DHT22;10824;51.632;4.950;2023-05-10T10:11:38;15.80;65.60
21331;DHT22;10824;51.632;4.950;2023-05-10T10:14:06;16.00;66.80
21331;DHT22;10824;51.632;4.950;2023-05-10T10:16:33;16.10;64.90
21331;DHT22;10824;51.632;4.950;2023-05-10T10:19:00;16.10;63.40
21331;DHT22;10824;51.632;4.950;2023-05-10T10:21:31;16.10;64.70
21331;DHT22;10824;51.632;4.950;2023-05-10T10:24:01;16.20;61.40
21331;DHT22;10824;51.632;4.950;2023-05-10T10:26:29;16.30;64.60
21331;DHT22;10824;51.632;4.950;2023-05-10T10:31:46;16.40;61.70
21331;DHT22;10824;51.632;4.950;2023-05-10T10:34:25;16.30;62.00
21331;DHT22;10824;51.632;4.950;2023-05-10T10:36:55;16.30;63.40
21331;DHT22;10824;51.632;4.950;2023-05-10T10:39:25;16.40;62.70
21331;DHT22;10824;51.632;4.950;2023-05-10T10:41:56;16.40;63.30
21331;DHT22;10824;51.632;4.950;2023-05-10T10:52:34;16.40;61.10
21331;DHT22;10824;51.632;4.950;2023-05-10T10:55:18;16.40;59.10
21331;DHT22;10824;51.632;4.950;2023-05-10T10:57:50;16.40;57.80
21331;DHT22;10824;51.632;4.950;2023-05-10T11:02:49;16.40;59.00
21331;DHT22;10824;51.632;4.950;2023-05-10T11:08:41;17.00;58.40
21331;DHT22;10824;51.632;4.950;2023-05-10T11:11:09;17.20;58.20
21331;DHT22;10824;51.632;4.950;2023-05-10T11:13:44;17.20;59.60
21331;DHT22;10824;51.632;4.950;2023-05-10T11:19:07;17.30;54.00
21331;DHT22;10824;51.632;4.950;2023-05-10T11:24:23;17.50;58.40
21331;DHT22;10824;51.632;4.950;2023-05-10T11:26:53;17.40;52.20
21331;DHT22;10824;51.632;4.950;2023-05-10T11:29:21;17.30;52.30
21331;DHT22;10824;51.632;4.950;2023-05-10T11:31:49;17.30;51.50
21331;DHT22;10824;51.632;4.950;2023-05-10T11:34:27;17.40;54.80
21331;DHT22;10824;51.632;4.950;2023-05-10T11:36:55;17.30;53.00
21331;DHT22;10824;51.632;4.950;2023-05-10T11:39:31;17.40;55.10
21331;DHT22;10824;51.632;4.950;2023-05-10T11:42:00;17.30;53.40
21331;DHT22;10824;51.632;4.950;2023-05-10T11:44:31;17.30;54.90
21331;DHT22;10824;51.632;4.950;2023-05-10T11:47:02;17.00;54.00
21331;DHT22;10824;51.632;4.950;2023-05-10T11:49:30;17.10;56.60
21331;DHT22;10824;51.632;4.950;2023-05-10T11:52:07;17.10;56.50
21331;DHT22;10824;51.632;4.950;2023-05-10T11:54:34;17.20;58.20
21331;DHT22;10824;51.632;4.950;2023-05-10T11:57:03;17.20;58.40
21331;DHT22;10824;51.632;4.950;2023-05-10T11:59:30;17.30;58.30
21331;DHT22;10824;51.632;4.950;2023-05-10T12:01:57;17.20;58.30
21331;DHT22;10824;51.632;4.950;2023-05-10T12:04:24;17.20;58.20
21331;DHT22;10824;51.632;4.950;2023-05-10T12:06:52;17.20;58.20
21331;DHT22;10824;51.632;4.950;2023-05-10T12:09:20;17.20;58.20
21331;DHT22;10824;51.632;4.950;2023-05-10T12:12:01;17.20;58.20
21331;DHT22;10824;51.632;4.950;2023-05-10T12:14:28;17.20;58.20
21331;DHT22;10824;51.632;4.950;2023-05-10T12:17:00;17.00;63.70
21331;DHT22;10824;51.632;4.950;2023-05-10T12:19:27;16.90;65.90
21331;DHT22;10824;51.632;4.950;2023-05-10T12:21:54;16.90;69.60
21331;DHT22;10824;51.632;4.950;2023-05-10T12:24:21;16.70;65.60
21331;DHT22;10824;51.632;4.950;2023-05-10T12:26:49;16.70;65.60
21331;DHT22;10824;51.632;4.950;2023-05-10T12:29:19;16.60;68.60
21331;DHT22;10824;51.632;4.950;2023-05-10T12:31:54;16.50;66.70
21331;DHT22;10824;51.632;4.950;2023-05-10T12:34:33;16.60;65.50
21331;DHT22;10824;51.632;4.950;2023-05-10T12:37:02;16.70;64.40
21331;DHT22;10824;51.632;4.950;2023-05-10T12:39:45;16.80;59.40
21331;DHT22;10824;51.632;4.950;2023-05-10T12:42:14;16.80;59.50
21331;DHT22;10824;51.632;4.950;2023-05-10T12:44:41;16.70;56.80
21331;DHT22;10824;51.632;4.950;2023-05-10T12:47:08;16.70;56.40
21331;DHT22;10824;51.632;4.950;2023-05-10T12:49:35;16.80;55.00
21331;DHT22;10824;51.632;4.950;2023-05-10T12:52:02;16.90;58.10
21331;DHT22;10824;51.632;4.950;2023-05-10T12:54:29;16.90;54.90
21331;DHT22;10824;51.632;4.950;2023-05-10T12:56:59;16.70;50.70
21331;DHT22;10824;51.632;4.950;2023-05-10T12:59:26;16.90;53.80
21331;DHT22;10824;51.632;4.950;2023-05-10T13:01:53;16.70;50.40
21331;DHT22;10824;51.632;4.950;2023-05-10T13:04:20;16.80;51.50
21331;DHT22;10824;51.632;4.950;2023-05-10T13:06:49;17.00;55.70
21331;DHT22;10824;51.632;4.950;2023-05-10T13:09:16;17.10;47.70
21331;DHT22;10824;51.632;4.950;2023-05-10T13:11:43;17.00;48.20
21331;DHT22;10824;51.632;4.950;2023-05-10T13:14:10;17.10;47.40
21331;DHT22;10824;51.632;4.950;2023-05-10T13:16:37;17.00;47.30
21331;DHT22;10824;51.632;4.950;2023-05-10T13:19:04;16.90;48.80
21331;DHT22;10824;51.632;4.950;2023-05-10T13:21:32;17.00;50.80
21331;DHT22;10824;51.632;4.950;2023-05-10T13:23:58;17.00;48.00
21331;DHT22;10824;51.632;4.950;2023-05-10T13:26:27;17.20;50.80
21331;DHT22;10824;51.632;4.950;2023-05-10T13:28:54;17.30;47.90
21331;DHT22;10824;51.632;4.950;2023-05-10T13:31:22;17.10;47.90
21331;DHT22;10824;51.632;4.950;2023-05-10T13:33:49;17.20;47.90
21331;DHT22;10824;51.632;4.950;2023-05-10T13:36:16;17.20;47.30
21331;DHT22;10824;51.632;4.950;2023-05-10T13:38:43;17.10;48.70
21331;DHT22;10824;51.632;4.950;2023-05-10T13:41:10;17.00;46.20
21331;DHT22;10824;51.632;4.950;2023-05-10T13:43:37;16.80;46.10
21331;DHT22;10824;51.632;4.950;2023-05-10T13:46:04;16.70;45.70
21331;DHT22;10824;51.632;4.950;2023-05-10T13:48:31;16.60;47.50
21331;DHT22;10824;51.632;4.950;2023-05-10T13:51:00;16.70;50.00
21331;DHT22;10824;51.632;4.950;2023-05-10T13:53:26;16.60;46.60
21331;DHT22;10824;51.632;4.950;2023-05-10T13:55:54;16.50;45.40
21331;DHT22;10824;51.632;4.950;2023-05-10T13:58:21;16.50;37.00
21331;DHT22;10824;51.632;4.950;2023-05-10T14:00:49;16.50;39.10
21331;DHT22;10824;51.632;4.950;2023-05-10T14:03:16;16.50;41.80
21331;DHT22;10824;51.632;4.950;2023-05-10T14:05:43;16.70;41.70
21331;DHT22;10824;51.632;4.950;2023-05-10T14:08:12;16.80;39.40
21331;DHT22;10824;51.632;4.950;2023-05-10T14:10:39;16.70;37.60
21331;DHT22;10824;51.632;4.950;2023-05-10T14:13:07;16.80;39.80
21331;DHT22;10824;51.632;4.950;2023-05-10T14:15:34;16.70;40.50
21331;DHT22;10824;51.632;4.950;2023-05-10T14:18:03;16.70;42.10
21331;DHT22;10824;51.632;4.950;2023-05-10T14:20:30;16.90;44.00
21331;DHT22;10824;51.632;4.950;2023-05-10T14:23:00;17.00;44.80
21331;DHT22;10824;51.632;4.950;2023-05-10T14:25:27;17.00;48.90
21331;DHT22;10824;51.632;4.950;2023-05-10T14:27:55;17.10;49.40
21331;DHT22;10824;51.632;4.950;2023-05-10T14:30:22;16.90;50.50
21331;DHT22;10824;51.632;4.950;2023-05-10T14:32:49;16.80;50.50
21331;DHT22;10824;51.632;4.950;2023-05-10T14:35:17;16.80;54.00
21331;DHT22;10824;51.632;4.950;2023-05-10T14:37:45;16.70;52.10
21331;DHT22;10824;51.632;4.950;2023-05-10T14:40:12;16.70;54.80
21331;DHT22;10824;51.632;4.950;2023-05-10T14:42:42;16.70;55.90
21331;DHT22;10824;51.632;4.950;2023-05-10T14:45:10;16.60;55.20
21331;DHT22;10824;51.632;4.950;2023-05-10T14:47:37;16.40;55.10
21331;DHT22;10824;51.632;4.950;2023-05-10T14:50:05;16.40;57.90
21331;DHT22;10824;51.632;4.950;2023-05-10T14:52:32;16.50;60.80
21331;DHT22;10824;51.632;4.950;2023-05-10T14:55:00;16.50;58.60
21331;DHT22;10824;51.632;4.950;2023-05-10T14:57:29;16.40;57.90
21331;DHT22;10824;51.632;4.950;2023-05-10T14:59:56;16.40;55.80
21331;DHT22;10824;51.632;4.950;2023-05-10T15:02:24;16.30;55.20
21331;DHT22;10824;51.632;4.950;2023-05-10T15:04:51;16.40;57.90
21331;DHT22;10824;51.632;4.950;2023-05-10T15:07:21;16.30;53.70
21331;DHT22;10824;51.632;4.950;2023-05-10T15:09:49;16.30;56.60
21331;DHT22;10824;51.632;4.950;2023-05-10T15:12:38;16.20;57.70
21331;DHT22;10824;51.632;4.950;2023-05-10T15:15:06;16.00;66.00
21331;DHT22;10824;51.632;4.950;2023-05-10T15:17:33;16.10;74.90
21331;DHT22;10824;51.632;4.950;2023-05-10T15:20:01;16.00;72.90
21331;DHT22;10824;51.632;4.950;2023-05-10T15:22:32;15.90;77.10
21331;DHT22;10824;51.632;4.950;2023-05-10T15:25:01;15.80;83.20
21331;DHT22;10824;51.632;4.950;2023-05-10T15:27:28;15.80;80.40
21331;DHT22;10824;51.632;4.950;2023-05-10T15:29:56;15.80;80.40
21331;DHT22;10824;51.632;4.950;2023-05-10T15:32:23;15.70;81.30
21331;DHT22;10824;51.632;4.950;2023-05-10T15:34:50;15.70;88.70
21331;DHT22;10824;51.632;4.950;2023-05-10T15:37:17;15.70;92.00
21331;DHT22;10824;51.632;4.950;2023-05-10T15:39:44;15.60;95.70
21331;DHT22;10824;51.632;4.950;2023-05-10T15:42:12;15.70;99.20
21331;DHT22;10824;51.632;4.950;2023-05-10T15:44:39;15.50;97.10
21331;DHT22;10824;51.632;4.950;2023-05-10T15:47:06;15.60;99.70
21331;DHT22;10824;51.632;4.950;2023-05-10T15:49:33;15.50;99.90
21331;DHT22;10824;51.632;4.950;2023-05-10T15:52:00;15.40;99.90
21331;DHT22;10824;51.632;4.950;2023-05-10T15:54:28;15.40;99.90
21331;DHT22;10824;51.632;4.950;2023-05-10T15:56:55;15.30;99.90
21331;DHT22;10824;51.632;4.950;2023-05-10T15:59:22;15.10;99.90
21331;DHT22;10824;51.632;4.950;2023-05-10T16:01:51;15.10;99.10
21331;DHT22;10824;51.632;4.950;2023-05-10T16:04:18;14.80;97.30
21331;DHT22;10824;51.632;4.950;2023-05-10T16:06:45;14.90;97.50
21331;DHT22;10824;51.632;4.950;2023-05-10T16:09:12;14.90;97.20
21331;DHT22;10824;51.632;4.950;2023-05-10T16:11:39;14.60;95.90
21331;DHT22;10824;51.632;4.950;2023-05-10T16:14:07;14.70;96.00